createdAt,value
2022-11-29T00:01:38.397Z,29.27
2022-11-29T00:04:07.004Z,30.10
2022-11-29T00:06:35.712Z,29.20
2022-11-29T00:09:07.188Z,29.50
2022-11-29T00:11:54.721Z,26.90
2022-11-29T00:14:25.091Z,30.85
2022-11-29T00:16:53.355Z,31.63
2022-11-29T00:19:21.754Z,30.98
2022-11-29T00:21:49.382Z,31.10
2022-11-29T00:24:17.161Z,30.23
2022-11-29T00:26:44.851Z,30.90
2022-11-29T00:29:13.367Z,32.75
2022-11-29T00:31:42.906Z,30.80
2022-11-29T00:34:12.142Z,30.13
2022-11-29T00:36:40.351Z,34.50
2022-11-29T00:39:11.798Z,30.13
2022-11-29T00:41:40.385Z,30.42
2022-11-29T00:44:08.082Z,32.28
2022-11-29T00:46:35.713Z,29.90
2022-11-29T00:49:04.777Z,27.90
2022-11-29T00:51:32.778Z,31.33
2022-11-29T00:54:00.409Z,31.95
2022-11-29T00:56:28.105Z,32.80
2022-11-29T00:58:55.817Z,28.08
2022-11-29T01:01:23.802Z,30.75
2022-11-29T01:03:51.427Z,32.13
2022-11-29T01:06:20.547Z,30.30
2022-11-29T01:08:48.327Z,31.48
2022-11-29T01:11:18.110Z,32.50
2022-11-29T01:13:46.157Z,32.72
2022-11-29T01:16:14.903Z,33.92
2022-11-29T01:18:43.659Z,32.22
2022-11-29T01:21:13.197Z,31.95
2022-11-29T01:23:43.164Z,31.73
2022-11-29T01:26:13.864Z,37.30
2022-11-29T01:28:42.066Z,33.65
2022-11-29T01:31:11.639Z,33.28
2022-11-29T01:33:40.173Z,28.88
2022-11-29T01:36:09.264Z,35.30
2022-11-29T01:38:37.431Z,32.80
2022-11-29T01:41:08.387Z,31.75
2022-11-29T01:43:59.144Z,37.67
2022-11-29T01:46:28.152Z,31.45
2022-11-29T01:48:59.441Z,33.58
2022-11-29T01:51:31.145Z,34.00
2022-11-29T01:53:59.669Z,37.70
2022-11-29T01:56:30.133Z,29.08
2022-11-29T01:58:58.049Z,35.58
2022-11-29T02:01:26.597Z,34.80
2022-11-29T02:03:54.800Z,35.70
2022-11-29T02:06:23.401Z,36.85
2022-11-29T02:08:51.034Z,35.05
2022-11-29T02:11:54.167Z,33.65
2022-11-29T02:14:50.583Z,34.85
2022-11-29T02:17:31.223Z,35.60
2022-11-29T02:20:26.432Z,37.78
2022-11-29T02:23:00.594Z,33.55
2022-11-29T02:25:54.532Z,38.72
2022-11-29T02:28:49.048Z,37.15
2022-11-29T02:31:52.855Z,36.67
2022-11-29T02:34:48.260Z,34.92
2022-11-29T02:37:39.288Z,38.53
2022-11-29T02:40:24.601Z,35.30
2022-11-29T02:43:19.419Z,39.30
2022-11-29T02:45:59.460Z,37.63
2022-11-29T02:48:54.315Z,39.47
2022-11-29T02:51:31.974Z,35.80
2022-11-29T02:54:07.259Z,45.63
2022-11-29T02:56:40.862Z,40.72
2022-11-29T02:59:15.985Z,37.92
2022-11-29T03:01:53.111Z,38.85
2022-11-29T03:04:26.998Z,36.95
2022-11-29T03:07:03.919Z,41.13
2022-11-29T03:09:39.782Z,39.10
2022-11-29T03:12:19.768Z,38.55
2022-11-29T03:14:58.365Z,40.80
2022-11-29T03:17:38.762Z,38.83
2022-11-29T03:20:25.003Z,39.20
2022-11-29T03:23:08.955Z,37.20
2022-11-29T03:25:42.561Z,37.45
2022-11-29T03:28:16.629Z,39.78
2022-11-29T03:31:02.249Z,42.85
2022-11-29T03:33:38.912Z,35.40
2022-11-29T03:36:12.607Z,43.00
2022-11-29T03:38:43.402Z,42.05
2022-11-29T03:41:20.909Z,36.75
2022-11-29T03:43:55.957Z,36.72
2022-11-29T03:46:30.815Z,38.10
2022-11-29T03:49:03.749Z,38.13
2022-11-29T03:51:44.049Z,42.92
2022-11-29T03:54:17.508Z,39.55
2022-11-29T03:56:45.689Z,43.55
2022-11-29T03:59:25.606Z,41.88
2022-11-29T04:02:10.978Z,43.47
2022-11-29T04:05:15.065Z,38.33
2022-11-29T04:07:50.722Z,39.45
2022-11-29T04:10:30.106Z,42.58
2022-11-29T04:13:30.903Z,40.05
2022-11-29T04:16:24.091Z,39.90
2022-11-29T04:19:29.210Z,39.45
2022-11-29T04:22:28.504Z,39.47
2022-11-29T04:25:17.248Z,39.85
2022-11-29T04:28:01.515Z,40.65
2022-11-29T04:30:39.678Z,39.63
2022-11-29T04:33:35.958Z,41.75
2022-11-29T04:36:34.953Z,38.53
2022-11-29T04:39:37.982Z,44.75
2022-11-29T04:42:33.943Z,40.83
2022-11-29T04:45:30.776Z,38.70
2022-11-29T04:48:11.658Z,43.85
2022-11-29T04:50:50.669Z,42.83
2022-11-29T04:53:50.593Z,38.55
2022-11-29T04:56:28.568Z,41.45
2022-11-29T04:59:03.429Z,44.10
2022-11-29T05:01:42.346Z,42.10
2022-11-29T05:04:16.976Z,41.03
2022-11-29T05:06:54.949Z,44.72
2022-11-29T05:09:28.731Z,40.25
2022-11-29T05:12:08.024Z,42.40
2022-11-29T05:14:45.784Z,38.85
2022-11-29T05:17:34.582Z,42.90
2022-11-29T05:20:12.553Z,38.58
2022-11-29T05:22:49.103Z,38.88
2022-11-29T05:25:40.991Z,44.72
2022-11-29T05:28:15.896Z,39.63
2022-11-29T05:31:07.425Z,45.03
2022-11-29T05:34:06.745Z,42.97
2022-11-29T05:36:41.003Z,43.10
2022-11-29T05:39:22.436Z,44.13
2022-11-29T05:42:03.036Z,40.75
2022-11-29T05:44:35.361Z,46.97
2022-11-29T05:47:05.159Z,41.80
2022-11-29T05:49:41.892Z,43.75
2022-11-29T05:52:24.523Z,42.10
2022-11-29T05:55:06.899Z,45.78
2022-11-29T05:57:42.327Z,40.95
2022-11-29T06:00:12.423Z,45.63
2022-11-29T06:02:51.364Z,45.97
2022-11-29T06:05:27.041Z,45.90
2022-11-29T06:07:59.633Z,39.72
2022-11-29T06:10:32.908Z,40.90
2022-11-29T06:13:12.627Z,41.80
2022-11-29T06:16:08.886Z,40.75
2022-11-29T06:18:57.610Z,42.22
2022-11-29T06:21:36.681Z,42.88
2022-11-29T06:24:26.117Z,42.38
2022-11-29T06:27:16.316Z,42.10
2022-11-29T06:29:51.580Z,45.08
2022-11-29T06:32:25.872Z,46.33
2022-11-29T06:34:59.219Z,42.15
2022-11-29T06:37:32.517Z,46.78
2022-11-29T06:40:00.668Z,46.20
2022-11-29T06:42:28.439Z,45.58
2022-11-29T06:44:56.914Z,40.38
2022-11-29T06:47:29.866Z,46.50
2022-11-29T06:50:02.048Z,46.75
2022-11-29T06:52:40.097Z,46.63
2022-11-29T06:55:19.280Z,40.13
2022-11-29T06:57:59.163Z,42.47
2022-11-29T07:00:31.676Z,49.92
2022-11-29T07:03:39.068Z,42.38
2022-11-29T07:06:16.289Z,42.83
2022-11-29T07:08:46.515Z,43.33
2022-11-29T07:11:15.501Z,44.88
2022-11-29T07:13:43.968Z,48.40
2022-11-29T07:16:19.582Z,47.20
2022-11-29T07:18:54.853Z,44.78
2022-11-29T07:21:34.413Z,43.72
2022-11-29T07:24:14.374Z,42.28
2022-11-29T07:26:58.058Z,46.10
2022-11-29T07:29:47.976Z,42.58
2022-11-29T07:32:23.515Z,47.05
2022-11-29T07:35:02.923Z,43.30
2022-11-29T07:37:37.632Z,45.88
2022-11-29T07:40:15.908Z,44.60
2022-11-29T07:42:56.167Z,41.38
2022-11-29T07:45:28.501Z,42.10
2022-11-29T07:47:57.299Z,47.25
2022-11-29T07:50:26.284Z,43.75
2022-11-29T07:52:55.556Z,47.00
2022-11-29T07:55:26.632Z,45.38
2022-11-29T07:57:54.653Z,47.38
2022-11-29T08:00:23.319Z,48.22
2022-11-29T08:02:51.713Z,45.10
2022-11-29T08:05:19.668Z,44.67
2022-11-29T08:07:47.659Z,42.33
2022-11-29T08:10:17.365Z,45.00
2022-11-29T08:12:48.379Z,46.00
2022-11-29T08:15:16.350Z,46.72
2022-11-29T08:17:44.206Z,46.55
2022-11-29T08:20:13.619Z,45.15
2022-11-29T08:22:41.543Z,45.30
2022-11-29T08:25:10.718Z,45.30
2022-11-29T08:27:39.426Z,43.08
2022-11-29T08:30:09.778Z,44.03
2022-11-29T08:32:37.552Z,39.20
2022-11-29T08:35:05.688Z,42.90
2022-11-29T08:37:33.383Z,40.90
2022-11-29T08:40:01.151Z,46.33
2022-11-29T08:42:28.807Z,40.92
2022-11-29T08:44:57.296Z,43.38
2022-11-29T08:47:38.515Z,43.17
2022-11-29T08:50:12.426Z,48.28
2022-11-29T08:52:59.088Z,38.88
2022-11-29T08:55:28.813Z,42.08
2022-11-29T08:58:02.978Z,41.85
2022-11-29T09:00:31.111Z,40.25
2022-11-29T09:03:20.268Z,44.25
2022-11-29T09:05:51.288Z,36.50
2022-11-29T09:08:20.363Z,40.72
2022-11-29T09:10:48.683Z,47.10
2022-11-29T09:13:17.500Z,38.95
2022-11-29T09:15:45.116Z,31.35
2022-11-29T09:18:14.139Z,37.22
2022-11-29T09:20:44.046Z,36.88
2022-11-29T09:23:12.381Z,38.25
2022-11-29T09:25:40.134Z,36.33
2022-11-29T09:28:08.568Z,37.65
2022-11-29T09:30:37.980Z,38.10
2022-11-29T09:33:05.657Z,40.67
2022-11-29T09:35:35.246Z,41.30
2022-11-29T09:38:02.962Z,34.65
2022-11-29T09:40:38.406Z,34.83
2022-11-29T09:43:15.046Z,40.83
2022-11-29T09:45:46.017Z,37.60
2022-11-29T09:48:37.188Z,42.05
2022-11-29T09:51:18.290Z,41.83
2022-11-29T09:54:02.822Z,43.58
2022-11-29T09:56:38.134Z,39.78
2022-11-29T09:59:10.819Z,43.72
2022-11-29T10:01:42.275Z,41.03
2022-11-29T10:04:13.223Z,41.78
2022-11-29T10:06:46.740Z,42.30
2022-11-29T10:09:21.128Z,41.85
2022-11-29T10:12:01.523Z,44.15
2022-11-29T10:14:34.576Z,45.38
2022-11-29T10:17:06.642Z,45.10
2022-11-29T10:19:38.513Z,45.17
2022-11-29T10:22:30.919Z,42.97
2022-11-29T10:25:15.836Z,45.67
2022-11-29T10:27:46.164Z,42.10
2022-11-29T10:30:16.036Z,46.70
2022-11-29T10:32:46.390Z,44.35
2022-11-29T10:35:15.428Z,47.65
2022-11-29T10:38:01.571Z,45.42
2022-11-29T10:40:35.238Z,43.08
2022-11-29T10:43:03.668Z,46.88
2022-11-29T10:45:33.973Z,41.10
2022-11-29T10:48:05.136Z,45.70
2022-11-29T10:50:35.424Z,46.25
2022-11-29T10:53:09.654Z,48.55
2022-11-29T10:55:41.378Z,44.58
2022-11-29T10:58:12.587Z,46.65
2022-11-29T11:00:51.329Z,48.58
2022-11-29T11:03:35.769Z,49.92
2022-11-29T11:06:07.326Z,46.33
2022-11-29T11:08:36.795Z,45.28
2022-11-29T11:11:07.580Z,42.53
2022-11-29T11:13:37.864Z,46.00
2022-11-29T11:16:12.300Z,45.13
2022-11-29T11:18:40.051Z,42.08
2022-11-29T11:21:11.457Z,45.08
2022-11-29T11:23:46.370Z,44.88
2022-11-29T11:26:15.606Z,41.42
2022-11-29T11:28:49.420Z,47.03
2022-11-29T11:31:26.269Z,42.00
2022-11-29T11:33:54.366Z,46.30
2022-11-29T11:36:24.007Z,42.92
2022-11-29T11:38:55.119Z,46.00
2022-11-29T11:41:47.462Z,45.67
2022-11-29T11:44:53.605Z,43.92
2022-11-29T11:47:24.218Z,45.45
2022-11-29T11:49:56.161Z,42.92
2022-11-29T11:52:26.975Z,46.42
2022-11-29T11:54:58.947Z,50.53
2022-11-29T11:57:27.490Z,45.83
2022-11-29T12:00:02.033Z,50.38
2022-11-29T12:02:41.270Z,53.17
2022-11-29T12:05:16.232Z,46.33
2022-11-29T12:10:40.790Z,44.58
2022-11-29T12:13:19.613Z,52.63
2022-11-29T12:15:50.701Z,50.00
2022-11-29T12:18:26.107Z,47.08
2022-11-29T12:20:58.127Z,48.00
2022-11-29T12:23:36.275Z,50.25
2022-11-29T12:26:13.642Z,47.75
2022-11-29T12:28:47.620Z,49.67
2022-11-29T12:31:40.428Z,45.60
2022-11-29T12:34:24.223Z,48.85
2022-11-29T12:36:58.127Z,49.92
2022-11-29T12:39:40.174Z,42.80
2022-11-29T12:42:18.460Z,45.53
2022-11-29T12:44:55.175Z,49.63
2022-11-29T12:47:36.828Z,45.88
2022-11-29T12:50:18.969Z,48.83
2022-11-29T12:52:56.761Z,51.85
2022-11-29T12:55:27.468Z,49.60
2022-11-29T12:58:04.850Z,48.08
2022-11-29T13:00:36.776Z,49.35
2022-11-29T13:03:16.410Z,50.03
2022-11-29T13:05:53.941Z,48.33
2022-11-29T13:08:47.368Z,46.03
2022-11-29T13:11:22.820Z,45.67
2022-11-29T13:14:08.346Z,46.38
2022-11-29T13:16:52.726Z,47.53
2022-11-29T13:19:25.748Z,45.42
2022-11-29T13:22:00.576Z,49.85
2022-11-29T13:24:39.689Z,44.63
2022-11-29T13:27:17.471Z,50.90
2022-11-29T13:29:47.812Z,49.05
2022-11-29T13:32:31.173Z,47.50
2022-11-29T13:35:03.557Z,46.08
2022-11-29T13:37:36.295Z,49.17
2022-11-29T13:40:18.481Z,45.22
2022-11-29T13:42:51.488Z,48.45
2022-11-29T13:45:26.040Z,47.10
2022-11-29T13:47:55.744Z,54.30
2022-11-29T13:50:38.892Z,45.53
2022-11-29T13:53:14.416Z,42.58
2022-11-29T13:55:47.338Z,51.40
2022-11-29T13:58:34.989Z,52.75
2022-11-29T14:01:08.283Z,53.00
2022-11-29T14:03:39.542Z,47.03
2022-11-29T14:06:15.824Z,52.58
2022-11-29T14:09:21.921Z,47.55
2022-11-29T14:11:55.047Z,55.90
2022-11-29T14:14:28.013Z,48.25
2022-11-29T14:17:00.806Z,50.40
2022-11-29T14:19:33.851Z,52.72
2022-11-29T14:22:21.519Z,51.90
2022-11-29T14:24:58.850Z,49.38
2022-11-29T14:28:02.336Z,55.28
2022-11-29T14:30:32.630Z,50.05
2022-11-29T14:33:09.909Z,51.95
2022-11-29T14:35:44.515Z,51.33
2022-11-29T14:38:19.552Z,53.05
2022-11-29T14:40:53.418Z,55.35
2022-11-29T14:43:24.483Z,51.80
2022-11-29T14:46:08.110Z,50.33
2022-11-29T14:48:38.155Z,49.35
2022-11-29T14:51:10.375Z,53.15
2022-11-29T14:53:39.541Z,50.78
2022-11-29T14:56:42.203Z,56.95
2022-11-29T14:59:57.839Z,51.90
2022-11-29T15:02:32.336Z,54.17
2022-11-29T15:05:14.573Z,53.45
2022-11-29T15:07:45.356Z,51.05
2022-11-29T15:10:20.454Z,49.03
2022-11-29T15:12:49.760Z,54.35
2022-11-29T15:15:31.837Z,52.58
2022-11-29T15:18:03.779Z,49.42
2022-11-29T15:21:04.276Z,51.97
2022-11-29T15:23:41.458Z,53.55
2022-11-29T15:26:17.794Z,54.08
2022-11-29T15:29:27.154Z,56.92
2022-11-29T15:32:04.803Z,51.53
2022-11-29T15:34:35.731Z,55.42
2022-11-29T15:37:05.616Z,54.88
2022-11-29T15:39:35.930Z,57.50
2022-11-29T15:42:05.313Z,52.47
2022-11-29T15:44:43.109Z,55.55
2022-11-29T15:47:21.561Z,55.33
2022-11-29T15:49:49.212Z,52.67
2022-11-29T15:52:25.039Z,56.58
2022-11-29T15:54:57.636Z,49.22
2022-11-29T15:57:28.429Z,62.58
2022-11-29T15:59:59.009Z,61.53
2022-11-29T16:02:29.087Z,51.30
2022-11-29T16:05:00.650Z,56.45
2022-11-29T16:07:34.150Z,56.63
2022-11-29T16:10:05.157Z,54.40
2022-11-29T16:12:33.312Z,51.72
2022-11-29T16:15:02.412Z,54.00
2022-11-29T16:17:32.470Z,55.08
2022-11-29T16:20:24.199Z,50.28
2022-11-29T16:23:12.193Z,55.17
2022-11-29T16:25:56.793Z,55.97
2022-11-29T16:28:26.329Z,55.50
2022-11-29T16:30:54.020Z,58.20
2022-11-29T16:33:24.372Z,52.60
2022-11-29T16:36:03.281Z,51.65
2022-11-29T16:38:32.427Z,53.88
2022-11-29T16:41:06.580Z,58.10
2022-11-29T16:43:55.188Z,59.70
2022-11-29T16:46:37.795Z,58.33
2022-11-29T16:49:34.372Z,52.45
2022-11-29T16:52:02.596Z,48.20
2022-11-29T16:54:34.123Z,45.72
2022-11-29T16:57:05.986Z,54.30
2022-11-29T16:59:35.222Z,55.15
2022-11-29T17:02:05.962Z,52.03
2022-11-29T17:04:33.616Z,53.90
2022-11-29T17:07:01.215Z,54.10
2022-11-29T17:09:35.910Z,56.13
2022-11-29T17:12:04.184Z,55.65
2022-11-29T17:14:33.305Z,51.60
2022-11-29T17:17:01.091Z,48.63
2022-11-29T17:19:30.127Z,56.53
2022-11-29T17:21:57.979Z,57.13
2022-11-29T17:24:25.655Z,57.35
2022-11-29T17:26:54.874Z,52.88
2022-11-29T17:29:24.336Z,58.72
2022-11-29T17:31:56.224Z,57.15
2022-11-29T17:34:25.890Z,54.08
2022-11-29T17:36:57.987Z,51.03
2022-11-29T17:39:25.818Z,57.97
2022-11-29T17:41:56.120Z,57.97
2022-11-29T17:44:24.216Z,60.10
2022-11-29T17:46:52.018Z,60.70
2022-11-29T17:49:19.686Z,63.03
2022-11-29T17:51:52.332Z,59.67
2022-11-29T17:54:23.891Z,63.10
2022-11-29T17:56:52.312Z,57.95
2022-11-29T17:59:21.414Z,56.50
2022-11-29T18:01:49.451Z,64.28
2022-11-29T18:04:17.379Z,65.50
2022-11-29T18:06:49.670Z,63.22
2022-11-29T18:09:18.389Z,68.63
2022-11-29T18:11:49.427Z,59.28
2022-11-29T18:14:19.961Z,66.85
2022-11-29T18:16:49.372Z,65.53
2022-11-29T18:19:20.399Z,61.50
2022-11-29T18:21:48.841Z,64.38
2022-11-29T18:24:16.479Z,65.93
2022-11-29T18:26:44.518Z,67.97
2022-11-29T18:29:12.556Z,70.35
2022-11-29T18:31:42.714Z,63.58
2022-11-29T18:34:13.358Z,65.45
2022-11-29T18:36:43.881Z,62.42
2022-11-29T18:39:14.840Z,73.82
2022-11-29T18:41:43.861Z,67.22
2022-11-29T18:44:13.123Z,71.82
2022-11-29T18:46:43.177Z,69.82
2022-11-29T18:49:14.364Z,65.90
2022-11-29T18:51:44.795Z,64.38
2022-11-29T18:54:13.300Z,62.08
2022-11-29T18:56:41.466Z,66.88
2022-11-29T18:59:10.889Z,60.22
2022-11-29T19:01:42.287Z,67.07
2022-11-29T19:04:13.290Z,66.90
2022-11-29T19:06:41.982Z,66.47
2022-11-29T19:09:13.119Z,72.35
2022-11-29T19:11:41.061Z,60.42
2022-11-29T19:14:13.495Z,66.93
2022-11-29T19:16:43.915Z,73.53
2022-11-29T19:19:13.628Z,65.60
2022-11-29T19:21:43.575Z,67.32
2022-11-29T19:24:17.789Z,69.80
2022-11-29T19:26:48.022Z,63.72
2022-11-29T19:29:16.529Z,69.55
2022-11-29T19:31:44.407Z,71.38
2022-11-29T19:34:13.640Z,67.10
2022-11-29T19:36:44.213Z,73.63
2022-11-29T19:39:13.960Z,70.35
2022-11-29T19:41:43.019Z,63.40
2022-11-29T19:44:11.380Z,64.13
2022-11-29T19:46:41.908Z,72.38
2022-11-29T19:49:10.216Z,63.80
2022-11-29T19:51:39.653Z,68.43
2022-11-29T19:54:10.674Z,64.82
2022-11-29T19:56:39.352Z,66.50
2022-11-29T19:59:08.596Z,69.40
2022-11-29T20:01:42.053Z,67.93
2022-11-29T20:04:11.668Z,66.40
2022-11-29T20:06:41.508Z,68.80
2022-11-29T20:09:09.346Z,68.97
2022-11-29T20:11:37.226Z,63.78
2022-11-29T20:14:07.085Z,67.05
2022-11-29T20:16:34.872Z,67.40
2022-11-29T20:19:02.787Z,69.32
2022-11-29T20:21:32.035Z,62.13
2022-11-29T20:24:04.150Z,71.78
2022-11-29T20:26:33.698Z,60.35
2022-11-29T20:29:02.387Z,55.97
2022-11-29T20:31:31.071Z,69.57
2022-11-29T20:33:59.365Z,60.63
2022-11-29T20:36:40.205Z,64.38
2022-11-29T20:39:19.845Z,69.22
2022-11-29T20:42:00.600Z,66.65
2022-11-29T20:44:38.137Z,71.50
2022-11-29T20:47:13.670Z,61.70
2022-11-29T20:49:41.571Z,59.38
2022-11-29T20:52:17.493Z,64.50
2022-11-29T20:54:49.682Z,66.53
2022-11-29T20:57:17.644Z,63.25
2022-11-29T20:59:45.641Z,72.95
2022-11-29T21:02:13.669Z,61.83
2022-11-29T21:04:41.463Z,64.97
2022-11-29T21:07:09.207Z,62.13
2022-11-29T21:09:36.842Z,61.55
2022-11-29T21:12:08.865Z,63.22
2022-11-29T21:14:37.044Z,64.57
2022-11-29T21:17:08.374Z,69.65
2022-11-29T21:19:36.812Z,73.05
2022-11-29T21:22:11.642Z,64.35
2022-11-29T21:24:49.116Z,66.00
2022-11-29T21:27:23.622Z,71.72
2022-11-29T21:29:52.308Z,72.30
2022-11-29T21:32:23.436Z,66.13
2022-11-29T21:34:51.613Z,76.15
2022-11-29T21:40:27.093Z,71.65
2022-11-29T21:42:56.198Z,73.88
2022-11-29T21:45:23.807Z,73.10
2022-11-29T21:47:51.672Z,77.70
2022-11-29T21:50:19.354Z,72.25
2022-11-29T21:52:49.565Z,78.97
2022-11-29T21:55:17.357Z,72.63
2022-11-29T21:57:45.000Z,65.57
2022-11-29T22:00:15.563Z,65.47
2022-11-29T22:02:43.302Z,70.80
2022-11-29T22:05:11.011Z,72.30
2022-11-29T22:07:38.628Z,68.07
2022-11-29T22:10:13.149Z,72.45
2022-11-29T22:12:51.388Z,65.78
2022-11-29T22:15:24.793Z,64.03
2022-11-29T22:17:53.297Z,69.38
2022-11-29T22:20:21.331Z,58.40
2022-11-29T22:22:49.173Z,64.63
2022-11-29T22:25:17.554Z,65.45
2022-11-29T22:27:45.200Z,71.53
2022-11-29T22:30:13.635Z,69.07
2022-11-29T22:32:42.693Z,70.03
2022-11-29T22:35:10.521Z,67.13
2022-11-29T22:37:38.518Z,72.93
2022-11-29T22:40:08.032Z,68.70
2022-11-29T22:42:36.199Z,66.07
2022-11-29T22:45:09.521Z,63.92
2022-11-29T22:47:45.253Z,66.78
2022-11-29T22:50:18.038Z,67.68
2022-11-29T22:52:54.105Z,67.30
2022-11-29T22:55:23.714Z,68.45
2022-11-29T22:57:56.023Z,73.95
2022-11-29T23:00:24.267Z,63.67
2022-11-29T23:03:01.087Z,69.03
2022-11-29T23:05:34.973Z,70.30
2022-11-29T23:08:02.813Z,76.47
2022-11-29T23:10:32.824Z,68.32
2022-11-29T23:13:02.915Z,57.75
2022-11-29T23:15:37.572Z,61.65
2022-11-29T23:18:14.283Z,63.33
2022-11-29T23:20:43.872Z,68.50
2022-11-29T23:23:11.893Z,74.32
2022-11-29T23:25:47.515Z,62.33
2022-11-29T23:28:18.400Z,61.30
2022-11-29T23:30:46.188Z,63.45
2022-11-29T23:33:13.881Z,66.93
2022-11-29T23:35:42.837Z,67.30
2022-11-29T23:38:10.609Z,61.22
2022-11-29T23:40:38.884Z,63.33
2022-11-29T23:43:06.707Z,69.65
2022-11-29T23:45:42.933Z,61.67
2022-11-29T23:48:10.932Z,67.10
2022-11-29T23:50:38.959Z,61.60
2022-11-29T23:53:06.888Z,66.68
2022-11-29T23:55:34.872Z,63.97
2022-11-29T23:58:03.544Z,66.15
